Mustafa Dayi — TCZF2 — position and weather

sailwx.info

Track history (hours):
 
Tides and Currents Weather Stations Pressure Air Temp Water Temp Dewpoint Dewpoint Depression Visibility Wind Speed Wind Dir Waves Ship Positions

Mustafa Dayi

Last reported at 2017-Feb-27 12:27 UTC. Time now 2017-Feb-27 22:50 UTC.
Position N 40°42' E 028°57'.

Length 183 m; draft 7.5 m.

Type: Ship (hazmat cat A). MMSI: 271042433.

Date/timePositionNaut miles runAvg speedWind from/ knotsBaromVisibWave heightAir tempDewpointWater temp
2017-Feb-27 12:27N 40°42' E 028°57'1315.0
2017-Feb-27 11:34N 40°44' E 029°14'1313.1
2017-Feb-27 10:34N 40°45' E 029°31'5 0.4
2017-Feb-26 21:12N 40°45' E 029°38'812.1
2017-Feb-26 20:33N 40°44' E 029°28'1313.4
2017-Feb-26 19:33N 40°42' E 029°10'1514.7
2017-Feb-26 18:33N 40°37' E 028°52'15 7.3
2017-Feb-26 16:34N 40°25' E 029°03'1 0.1
2017-Feb-26 05:33N 40°25' E 029°05'26 7.9
2017-Feb-26 02:12N 40°45' E 028°41'1014.2
2017-Feb-26 01:31N 40°54' E 028°40'3 0.3
2017-Feb-25 13:32N 40°58' E 028°41'2 0.7
2017-Feb-25 11:13N 40°56' E 028°41'2 3.4
2017-Feb-25 10:32N 40°56' E 028°38'  
2017-Feb-20 17:24N 32°04' E 034°34'1214.1
2017-Feb-20 16:34N 32°16' E 034°37'1514.6
2017-Feb-20 15:33N 32°30' E 034°42'2115.0
2017-Feb-20 14:08N 32°50' E 034°49'813.1
2017-Feb-20 13:34N 32°52' E 034°58'4 3.9
2017-Feb-20 12:33N 32°49' E 035°01'0 0.0
2017-Feb-20 11:32N 32°49' E 035°01'0 0.0
2017-Feb-20 10:32N 32°49' E 035°01'0 0.0
2017-Feb-20 09:31N 32°49' E 035°01'0 0.0
2017-Feb-20 08:31N 32°49' E 035°01'0 0.0
2017-Feb-20 07:31N 32°49' E 035°01'0 0.0
2017-Feb-20 06:33N 32°49' E 035°01'0 0.0
2017-Feb-20 05:33N 32°49' E 035°01'0 0.0
2017-Feb-20 04:32N 32°49' E 035°01'0 0.0
2017-Feb-20 03:32N 32°49' E 035°01'0 0.0
2017-Feb-20 02:31N 32°49' E 035°01'0 0.0
2017-Feb-20 01:31N 32°49' E 035°01'0 0.0
2017-Feb-20 00:34N 32°49' E 035°01'0 0.0
2017-Feb-19 23:33N 32°49' E 035°01'0 0.0
2017-Feb-19 22:33N 32°49' E 035°01'0 0.0
2017-Feb-19 21:32N 32°49' E 035°01'0 0.0
2017-Feb-19 20:32N 32°49' E 035°01'0 0.0
2017-Feb-19 19:33N 32°49' E 035°01'2 2.0
2017-Feb-19 18:33N 32°51' E 035°00'2 1.4
2017-Feb-19 17:28N 32°53' E 034°60'0 0.0
2017-Feb-19 16:33N 32°53' E 034°60'0 0.1
2017-Feb-19 15:34N 32°53' E 034°60'1110.7
2017-Feb-19 14:33N 32°54' E 034°47'  
Track history (hours):
 
Tides and Currents Weather Stations Pressure Air Temp Water Temp Dewpoint Dewpoint Depression Visibility Wind Speed Wind Dir Waves Ship Positions

Mustafa Dayi

Last reported at 2017-Feb-27 12:27 UTC. Time now 2017-Feb-27 22:50 UTC.
Position N 40°42' E 028°57'.

Length 183 m; draft 7.5 m.

Type: Ship (hazmat cat A). MMSI: 271042433.

Date/timePositionNaut miles runAvg speedWind from/ knotsBaromVisibWave heightAir tempDewpointWater temp
2017-Feb-27 12:27N 40°42' E 028°57'1315.0
2017-Feb-27 11:34N 40°44' E 029°14'1313.1
2017-Feb-27 10:34N 40°45' E 029°31'5 0.4
2017-Feb-26 21:12N 40°45' E 029°38'812.1
2017-Feb-26 20:33N 40°44' E 029°28'1313.4
2017-Feb-26 19:33N 40°42' E 029°10'1514.7
2017-Feb-26 18:33N 40°37' E 028°52'15 7.3
2017-Feb-26 16:34N 40°25' E 029°03'1 0.1
2017-Feb-26 05:33N 40°25' E 029°05'26 7.9
2017-Feb-26 02:12N 40°45' E 028°41'1014.2
2017-Feb-26 01:31N 40°54' E 028°40'3 0.3
2017-Feb-25 13:32N 40°58' E 028°41'2 0.7
2017-Feb-25 11:13N 40°56' E 028°41'2 3.4
2017-Feb-25 10:32N 40°56' E 028°38'  
2017-Feb-20 17:24N 32°04' E 034°34'1214.1
2017-Feb-20 16:34N 32°16' E 034°37'1514.6
2017-Feb-20 15:33N 32°30' E 034°42'2115.0
2017-Feb-20 14:08N 32°50' E 034°49'813.1
2017-Feb-20 13:34N 32°52' E 034°58'4 3.9
2017-Feb-20 12:33N 32°49' E 035°01'0 0.0
2017-Feb-20 11:32N 32°49' E 035°01'0 0.0
2017-Feb-20 10:32N 32°49' E 035°01'0 0.0
2017-Feb-20 09:31N 32°49' E 035°01'0 0.0
2017-Feb-20 08:31N 32°49' E 035°01'0 0.0
2017-Feb-20 07:31N 32°49' E 035°01'0 0.0
2017-Feb-20 06:33N 32°49' E 035°01'0 0.0
2017-Feb-20 05:33N 32°49' E 035°01'0 0.0
2017-Feb-20 04:32N 32°49' E 035°01'0 0.0
2017-Feb-20 03:32N 32°49' E 035°01'0 0.0
2017-Feb-20 02:31N 32°49' E 035°01'0 0.0
2017-Feb-20 01:31N 32°49' E 035°01'0 0.0
2017-Feb-20 00:34N 32°49' E 035°01'0 0.0
2017-Feb-19 23:33N 32°49' E 035°01'0 0.0
2017-Feb-19 22:33N 32°49' E 035°01'0 0.0
2017-Feb-19 21:32N 32°49' E 035°01'0 0.0
2017-Feb-19 20:32N 32°49' E 035°01'0 0.0
2017-Feb-19 19:33N 32°49' E 035°01'2 2.0
2017-Feb-19 18:33N 32°51' E 035°00'2 1.4
2017-Feb-19 17:28N 32°53' E 034°60'0 0.0
2017-Feb-19 16:33N 32°53' E 034°60'0 0.1
2017-Feb-19 15:34N 32°53' E 034°60'1110.7
2017-Feb-19 14:33N 32°54' E 034°47'  

Dump ship's entire track history